Time;durP1;ratioP1;P1;durP2;ratioP2;P2;SDS_P1;SDS_P2;PMS_P1;PMS_P2;Temp;Humidity;BMP_temperature;BMP_pressure;BME280_temperature;BME280_humidity;BME280_pressure;Samples;Min_cycle;Max_cycle;Signal;HPM_P1;HPM_P2
2023/02/24 00:01:17;;;;;;;10.25;7.45;;;;;;;;;;5035273;28;20203;-87
2023/02/24 00:03:45;;;;;;;12.75;8.65;;;;;;;;;;5035047;28;20233;-86
2023/02/24 00:06:14;;;;;;;10.32;6.35;;;;;;;;;;5034662;28;20208;-86
2023/02/24 00:08:41;;;;;;;8.15;6.55;;;;;;;;;;5035057;28;20659;-86
2023/02/24 00:11:12;;;;;;;9.35;5.70;;;;;;;;;;5034896;28;20210;-87
2023/02/24 00:13:40;;;;;;;7.13;5.75;;;;;;;;;;5038804;28;20594;-86
2023/02/24 00:16:08;;;;;;;9.50;6.18;;;;;;;;;;5040319;28;20285;-88
2023/02/24 00:18:36;;;;;;;8.13;6.40;;;;;;;;;;5037770;28;20567;-88
2023/02/24 00:21:09;;;;;;;8.38;5.82;;;;;;;;;;5037439;28;20213;-86
2023/02/24 00:23:39;;;;;;;11.13;7.40;;;;;;;;;;5035089;28;20197;-86
2023/02/24 00:26:07;;;;;;;16.33;9.52;;;;;;;;;;5033935;28;20209;-86
2023/02/24 00:28:35;;;;;;;13.43;7.55;;;;;;;;;;5034696;28;20289;-86
2023/02/24 00:31:05;;;;;;;8.75;6.07;;;;;;;;;;5035135;28;20663;-86
2023/02/24 00:33:34;;;;;;;6.30;4.68;;;;;;;;;;5034823;28;20663;-86
2023/02/24 00:36:12;;;;;;;4.55;3.58;;;;;;;;;;5034311;28;20209;-85
2023/02/24 00:38:45;;;;;;;5.82;3.88;;;;;;;;;;5034259;28;20210;-86
2023/02/24 00:41:15;;;;;;;3.63;3.13;;;;;;;;;;5034754;28;20193;-85
2023/02/24 00:43:45;;;;;;;4.95;4.07;;;;;;;;;;5034547;28;20202;-85
2023/02/24 00:46:16;;;;;;;5.75;4.05;;;;;;;;;;5033973;28;20190;-85
2023/02/24 00:48:45;;;;;;;5.60;3.25;;;;;;;;;;5034545;28;20646;-85
2023/02/24 00:51:22;;;;;;;5.80;4.05;;;;;;;;;;5034347;28;20616;-85
2023/02/24 00:53:50;;;;;;;4.53;3.90;;;;;;;;;;5034245;28;20599;-86
2023/02/24 00:56:18;;;;;;;7.32;4.35;;;;;;;;;;5033526;28;20257;-85
2023/02/24 00:58:46;;;;;;;10.52;4.70;;;;;;;;;;5034145;28;20707;-85
2023/02/24 01:01:16;;;;;;;7.68;5.55;;;;;;;;;;5033728;28;20230;-85
2023/02/24 01:03:43;;;;;;;7.90;5.20;;;;;;;;;;5034397;28;20198;-85
2023/02/24 01:06:13;;;;;;;5.72;4.35;;;;;;;;;;5033841;28;20202;-85
2023/02/24 01:08:46;;;;;;;9.07;5.20;;;;;;;;;;5033727;28;20221;-85
2023/02/24 01:13:59;;;;;;;7.45;4.70;;;;;;;;;;5033997;28;20189;-85
2023/02/24 01:16:27;;;;;;;10.63;5.68;;;;;;;;;;5033870;28;20218;-86
2023/02/24 01:18:55;;;;;;;8.32;5.25;;;;;;;;;;5033786;28;20639;-86
2023/02/24 01:21:24;;;;;;;5.93;4.88;;;;;;;;;;5034007;28;20260;-85
2023/02/24 01:23:52;;;;;;;7.43;5.03;;;;;;;;;;5033664;28;20206;-86
2023/02/24 01:26:20;;;;;;;6.18;4.65;;;;;;;;;;5033376;28;20261;-86
2023/02/24 01:28:47;;;;;;;6.82;4.95;;;;;;;;;;5033777;28;20692;-85
2023/02/24 01:31:19;;;;;;;8.93;5.43;;;;;;;;;;5033565;28;20209;-86
2023/02/24 01:33:46;;;;;;;8.57;5.53;;;;;;;;;;5033694;28;20256;-88
2023/02/24 01:36:17;;;;;;;9.45;6.47;;;;;;;;;;5032582;28;20198;-85
2023/02/24 01:38:48;;;;;;;9.20;6.05;;;;;;;;;;5033547;28;20207;-85
2023/02/24 01:41:18;;;;;;;8.60;6.00;;;;;;;;;;5032957;28;20281;-87
2023/02/24 01:44:08;;;;;;;8.10;5.25;;;;;;;;;;5033510;28;20208;-86
2023/02/24 01:46:38;;;;;;;4.82;4.32;;;;;;;;;;5033095;28;20230;-86
2023/02/24 01:49:12;;;;;;;5.70;3.97;;;;;;;;;;5033128;28;20175;-85
2023/02/24 01:51:44;;;;;;;4.50;3.42;;;;;;;;;;5033154;28;20659;-86
2023/02/24 01:54:16;;;;;;;6.60;3.80;;;;;;;;;;5033343;28;20193;-87
2023/02/24 01:56:46;;;;;;;8.95;5.82;;;;;;;;;;5032869;28;20218;-85
2023/02/24 01:59:14;;;;;;;7.85;4.65;;;;;;;;;;5033392;28;20340;-85
2023/02/24 02:01:44;;;;;;;7.38;4.90;;;;;;;;;;5033537;28;20209;-85
2023/02/24 02:04:18;;;;;;;5.63;4.93;;;;;;;;;;5033413;28;20704;-86
2023/02/24 02:06:46;;;;;;;8.98;5.60;;;;;;;;;;5033102;28;20288;-86
2023/02/24 02:09:16;;;;;;;9.70;4.25;;;;;;;;;;5032930;28;20290;-87
2023/02/24 02:11:47;;;;;;;9.63;3.78;;;;;;;;;;5033036;28;20286;-85
2023/02/24 02:14:16;;;;;;;4.93;3.33;;;;;;;;;;5033559;28;20217;-86
2023/02/24 02:17:01;;;;;;;11.65;5.18;;;;;;;;;;5033245;28;20714;-85
2023/02/24 02:20:28;;;;;;;7.10;3.63;;;;;;;;;;5033136;28;20265;-85
2023/02/24 02:23:54;;;;;;;9.20;4.10;;;;;;;;;;5000887;28;20647;-85
2023/02/24 02:27:07;;;;;;;9.25;4.40;;;;;;;;;;4952359;29;20312;-85
2023/02/24 02:30:12;;;;;;;11.95;5.13;;;;;;;;;;4959466;28;20205;-86
2023/02/24 02:33:37;;;;;;;7.07;4.72;;;;;;;;;;5032824;28;20214;-86
2023/02/24 02:36:13;;;;;;;8.38;4.15;;;;;;;;;;5033038;28;20573;-85
2023/02/24 02:38:49;;;;;;;9.23;4.93;;;;;;;;;;5032972;28;20206;-85
2023/02/24 02:41:24;;;;;;;11.57;5.18;;;;;;;;;;5033052;28;20643;-85
2023/02/24 02:43:57;;;;;;;9.43;4.00;;;;;;;;;;5032646;28;20183;-85
2023/02/24 02:46:33;;;;;;;8.57;4.30;;;;;;;;;;5032858;28;20316;-85
2023/02/24 02:49:06;;;;;;;10.65;4.22;;;;;;;;;;5034393;28;20272;-85
2023/02/24 02:51:41;;;;;;;13.55;5.35;;;;;;;;;;5036848;28;20183;-87
2023/02/24 02:54:15;;;;;;;6.18;3.63;;;;;;;;;;5036933;28;20663;-85
2023/02/24 02:56:48;;;;;;;11.75;4.45;;;;;;;;;;5036186;28;20313;-85
2023/02/24 02:59:21;;;;;;;8.05;3.72;;;;;;;;;;5036575;28;20211;-86
2023/02/24 03:01:49;;;;;;;5.82;3.63;;;;;;;;;;5036646;28;20194;-88
2023/02/24 03:04:21;;;;;;;6.35;3.75;;;;;;;;;;5036493;28;20293;-86
2023/02/24 03:06:56;;;;;;;5.30;3.47;;;;;;;;;;5036317;28;20222;-87
2023/02/24 03:09:28;;;;;;;8.35;3.42;;;;;;;;;;5036208;28;20277;-86
2023/02/24 03:12:00;;;;;;;7.78;3.97;;;;;;;;;;5036221;28;20190;-85
2023/02/24 03:14:33;;;;;;;7.20;3.08;;;;;;;;;;5036241;28;20191;-87
2023/02/24 03:17:03;;;;;;;4.80;3.20;;;;;;;;;;5035783;28;20317;-86
2023/02/24 03:19:36;;;;;;;3.97;2.85;;;;;;;;;;5036042;28;20258;-86
2023/02/24 03:22:11;;;;;;;6.68;3.72;;;;;;;;;;5035345;28;20210;-86
2023/02/24 03:24:39;;;;;;;6.80;3.50;;;;;;;;;;5035930;28;20190;-87
2023/02/24 03:27:10;;;;;;;5.05;3.92;;;;;;;;;;5035355;28;20233;-86
2023/02/24 03:29:43;;;;;;;4.78;4.20;;;;;;;;;;5035706;28;20190;-86
2023/02/24 03:32:15;;;;;;;6.97;4.20;;;;;;;;;;5035857;28;20667;-85
2023/02/24 03:34:50;;;;;;;7.82;4.65;;;;;;;;;;5035834;28;20615;-86
2023/02/24 03:37:24;;;;;;;8.32;4.28;;;;;;;;;;5034647;28;20228;-85
2023/02/24 03:39:53;;;;;;;5.78;4.13;;;;;;;;;;5035409;28;20221;-86
2023/02/24 03:42:21;;;;;;;6.43;4.85;;;;;;;;;;5035592;28;20197;-85
2023/02/24 03:44:49;;;;;;;4.88;4.35;;;;;;;;;;5035527;28;20293;-86
2023/02/24 03:47:19;;;;;;;7.32;4.10;;;;;;;;;;5035093;28;20325;-82
2023/02/24 03:49:46;;;;;;;7.13;4.43;;;;;;;;;;5033143;28;20198;-82
2023/02/24 03:52:28;;;;;;;7.10;4.28;;;;;;;;;;5033191;28;20208;-82
2023/02/24 03:55:17;;;;;;;7.47;4.18;;;;;;;;;;5033671;28;20191;-83
2023/02/24 03:58:01;;;;;;;6.20;3.40;;;;;;;;;;5033547;28;20226;-81
2023/02/24 04:00:35;;;;;;;6.68;3.95;;;;;;;;;;5032960;28;20257;-82
2023/02/24 04:03:14;;;;;;;5.35;4.30;;;;;;;;;;5033565;28;20240;-83
2023/02/24 04:05:47;;;;;;;6.22;4.13;;;;;;;;;;5033622;28;20203;-82
2023/02/24 04:08:19;;;;;;;6.78;4.40;;;;;;;;;;5032631;28;20233;-81
2023/02/24 04:10:52;;;;;;;6.13;3.88;;;;;;;;;;5033256;28;20186;-82
2023/02/24 04:13:30;;;;;;;8.07;4.65;;;;;;;;;;5033605;28;20191;-82
2023/02/24 04:16:02;;;;;;;4.38;3.60;;;;;;;;;;5033128;28;20231;-82
2023/02/24 04:18:32;;;;;;;6.72;3.85;;;;;;;;;;5032394;28;20248;-82
2023/02/24 04:21:03;;;;;;;4.45;3.10;;;;;;;;;;5033135;28;20309;-81
2023/02/24 04:23:37;;;;;;;8.35;3.35;;;;;;;;;;5033136;28;20213;-82
2023/02/24 04:26:05;;;;;;;5.65;3.70;;;;;;;;;;5033070;28;20617;-83
2023/02/24 04:28:33;;;;;;;5.60;3.22;;;;;;;;;;5030767;28;20238;-82
2023/02/24 04:31:05;;;;;;;4.03;3.22;;;;;;;;;;5032909;28;20294;-82
2023/02/24 04:33:33;;;;;;;5.32;3.90;;;;;;;;;;5033072;28;20191;-83
2023/02/24 04:36:00;;;;;;;4.25;3.17;;;;;;;;;;5032539;28;20241;-82
2023/02/24 04:38:28;;;;;;;7.57;3.97;;;;;;;;;;5031599;28;20285;-82
2023/02/24 04:40:57;;;;;;;6.60;3.30;;;;;;;;;;5032416;28;20232;-81
2023/02/24 04:43:24;;;;;;;4.93;3.22;;;;;;;;;;5032712;28;20301;-84
2023/02/24 04:45:52;;;;;;;6.65;3.30;;;;;;;;;;5035009;28;20288;-83
2023/02/24 04:48:19;;;;;;;8.32;3.72;;;;;;;;;;5034264;28;20273;-82
2023/02/24 04:50:53;;;;;;;7.05;3.92;;;;;;;;;;5054326;28;20628;-82
2023/02/24 04:53:25;;;;;;;4.75;2.97;;;;;;;;;;5055880;28;20216;-82
2023/02/24 04:55:55;;;;;;;9.75;4.38;;;;;;;;;;5055386;28;20220;-82
2023/02/24 04:58:26;;;;;;;6.35;3.47;;;;;;;;;;5054273;28;20229;-82
2023/02/24 05:00:55;;;;;;;5.30;3.70;;;;;;;;;;5055026;28;20233;-83
2023/02/24 05:03:26;;;;;;;10.38;4.55;;;;;;;;;;5055422;28;20205;-82
2023/02/24 05:05:57;;;;;;;4.15;3.15;;;;;;;;;;5055607;28;20236;-82
2023/02/24 05:08:25;;;;;;;7.45;4.43;;;;;;;;;;5054995;28;20604;-82
2023/02/24 05:10:53;;;;;;;5.63;3.92;;;;;;;;;;5054780;28;20217;-82
2023/02/24 05:13:26;;;;;;;10.10;3.47;;;;;;;;;;5054365;28;20206;-81
2023/02/24 05:15:54;;;;;;;6.75;3.30;;;;;;;;;;5055215;28;20190;-82
2023/02/24 05:18:23;;;;;;;6.60;3.25;;;;;;;;;;5054376;28;20767;-81
2023/02/24 05:23:40;;;;;;;10.57;4.13;;;;;;;;;;5054586;28;20689;-83
2023/02/24 05:26:09;;;;;;;6.55;3.65;;;;;;;;;;5055009;28;20215;-83
2023/02/24 05:28:40;;;;;;;5.93;3.30;;;;;;;;;;5054382;28;20208;-83
2023/02/24 05:31:09;;;;;;;7.85;4.05;;;;;;;;;;5054941;28;20177;-83
2023/02/24 05:33:38;;;;;;;4.95;3.42;;;;;;;;;;5054672;28;20209;-83
2023/02/24 05:36:08;;;;;;;11.00;3.97;;;;;;;;;;5053930;28;20300;-82
2023/02/24 05:38:36;;;;;;;13.07;3.85;;;;;;;;;;5053641;28;20210;-81
2023/02/24 05:41:13;;;;;;;5.82;3.67;;;;;;;;;;5053159;28;20217;-82
2023/02/24 05:43:46;;;;;;;8.38;4.03;;;;;;;;;;5053136;28;20542;-83
2023/02/24 05:46:15;;;;;;;8.77;3.70;;;;;;;;;;5052927;28;20281;-83
2023/02/24 05:48:43;;;;;;;8.45;3.13;;;;;;;;;;5052670;28;20296;-84
2023/02/24 05:51:12;;;;;;;7.93;3.80;;;;;;;;;;5053830;28;20217;-85
2023/02/24 05:53:41;;;;;;;9.23;4.15;;;;;;;;;;5052923;28;20292;-84
2023/02/24 05:56:08;;;;;;;5.32;3.42;;;;;;;;;;5053647;28;20202;-85
2023/02/24 05:58:38;;;;;;;6.68;4.50;;;;;;;;;;5052957;28;20674;-83
2023/02/24 06:01:15;;;;;;;6.82;4.13;;;;;;;;;;5053988;28;20316;-85
2023/02/24 06:03:46;;;;;;;4.88;3.53;;;;;;;;;;5053452;28;20205;-83
2023/02/24 06:06:14;;;;;;;7.00;4.20;;;;;;;;;;5053331;28;20190;-84
2023/02/24 06:08:48;;;;;;;10.88;5.30;;;;;;;;;;5054085;28;20573;-84
2023/02/24 06:11:17;;;;;;;10.18;4.05;;;;;;;;;;5054202;28;20267;-84
2023/02/24 06:13:46;;;;;;;12.57;5.25;;;;;;;;;;5053630;28;20274;-84
2023/02/24 06:16:16;;;;;;;10.23;5.43;;;;;;;;;;5054017;28;20210;-83
2023/02/24 06:18:48;;;;;;;11.70;5.55;;;;;;;;;;5052794;28;20212;-84
2023/02/24 06:21:15;;;;;;;11.30;5.25;;;;;;;;;;5053923;28;20260;-83
2023/02/24 06:23:43;;;;;;;5.07;3.83;;;;;;;;;;5055898;28;20292;-83
2023/02/24 06:26:11;;;;;;;6.30;4.30;;;;;;;;;;5057161;28;20198;-83
2023/02/24 06:28:42;;;;;;;6.18;3.72;;;;;;;;;;5057320;28;20228;-83
2023/02/24 06:31:10;;;;;;;7.82;4.00;;;;;;;;;;5048109;28;20566;-82
2023/02/24 06:33:39;;;;;;;5.38;3.15;;;;;;;;;;5034037;28;20293;-82
2023/02/24 06:36:07;;;;;;;14.82;5.22;;;;;;;;;;5037145;28;20293;-83
2023/02/24 06:38:38;;;;;;;10.48;4.78;;;;;;;;;;5036847;28;20296;-84
2023/02/24 06:41:09;;;;;;;6.43;3.60;;;;;;;;;;5037325;28;20202;-83
2023/02/24 06:43:38;;;;;;;7.10;3.38;;;;;;;;;;5037446;28;20194;-83
2023/02/24 06:46:06;;;;;;;7.60;4.47;;;;;;;;;;5037277;28;20210;-83
2023/02/24 06:48:34;;;;;;;8.77;4.30;;;;;;;;;;5034691;28;20297;-84
2023/02/24 06:51:07;;;;;;;11.55;4.63;;;;;;;;;;5019950;28;20194;-83
2023/02/24 06:53:35;;;;;;;11.75;4.50;;;;;;;;;;5036604;28;20286;-82
2023/02/24 06:56:13;;;;;;;5.65;3.47;;;;;;;;;;5036632;28;20208;-82
2023/02/24 06:58:43;;;;;;;10.70;5.03;;;;;;;;;;5036983;28;20192;-82
2023/02/24 07:01:12;;;;;;;8.90;4.80;;;;;;;;;;5036288;28;20207;-82
2023/02/24 07:03:46;;;;;;;6.07;3.58;;;;;;;;;;5037771;28;20198;-84
2023/02/24 07:06:22;;;;;;;9.00;4.68;;;;;;;;;;5036614;28;20198;-83
2023/02/24 07:08:51;;;;;;;7.97;3.20;;;;;;;;;;5034331;28;20190;-83
2023/02/24 07:11:20;;;;;;;9.75;5.03;;;;;;;;;;5037187;28;20229;-84
2023/02/24 07:13:48;;;;;;;11.18;5.00;;;;;;;;;;5036824;28;20233;-83
2023/02/24 07:16:17;;;;;;;9.30;5.10;;;;;;;;;;5036375;28;20659;-84
2023/02/24 07:18:47;;;;;;;12.73;5.53;;;;;;;;;;5036006;28;20246;-84
2023/02/24 07:21:22;;;;;;;9.30;5.72;;;;;;;;;;5035866;28;20214;-82
2023/02/24 07:23:55;;;;;;;6.88;3.50;;;;;;;;;;5036714;28;20280;-84
2023/02/24 07:26:25;;;;;;;6.05;4.40;;;;;;;;;;5035844;28;20226;-83
2023/02/24 07:28:55;;;;;;;7.82;3.97;;;;;;;;;;5035735;28;20208;-84
2023/02/24 07:31:24;;;;;;;9.68;5.25;;;;;;;;;;5035986;28;20249;-84
2023/02/24 07:33:55;;;;;;;5.15;4.15;;;;;;;;;;5035918;28;20210;-83
2023/02/24 07:36:28;;;;;;;7.07;3.70;;;;;;;;;;5036633;28;20237;-84
2023/02/24 07:38:58;;;;;;;12.85;5.13;;;;;;;;;;5035773;28;20745;-84
2023/02/24 07:41:27;;;;;;;9.52;4.28;;;;;;;;;;5034616;28;20244;-82
2023/02/24 07:43:57;;;;;;;12.68;5.22;;;;;;;;;;5036726;28;20213;-84
2023/02/24 07:46:28;;;;;;;7.22;4.30;;;;;;;;;;5036045;28;20707;-84
2023/02/24 07:48:58;;;;;;;8.88;4.97;;;;;;;;;;5035765;28;20222;-83
2023/02/24 07:51:28;;;;;;;3.85;2.90;;;;;;;;;;5036324;28;20245;-83
2023/02/24 07:53:58;;;;;;;5.78;3.65;;;;;;;;;;5036398;28;20191;-84
2023/02/24 07:56:28;;;;;;;7.90;3.75;;;;;;;;;;5035896;28;20309;-83
2023/02/24 07:58:59;;;;;;;4.30;2.53;;;;;;;;;;5035130;28;20221;-83
2023/02/24 08:01:27;;;;;;;6.47;3.47;;;;;;;;;;5029420;28;20218;-82
2023/02/24 08:03:59;;;;;;;4.00;2.28;;;;;;;;;;5015851;28;20435;-83
2023/02/24 08:06:36;;;;;;;4.10;2.15;;;;;;;;;;5016251;28;20227;-83
2023/02/24 08:09:15;;;;;;;4.40;2.42;;;;;;;;;;5015862;28;20644;-82
2023/02/24 08:11:44;;;;;;;4.88;2.20;;;;;;;;;;5016085;28;20288;-83
2023/02/24 08:14:16;;;;;;;11.70;4.55;;;;;;;;;;5016616;28;20273;-81
2023/02/24 08:16:46;;;;;;;4.57;3.10;;;;;;;;;;5016576;28;20310;-83
2023/02/24 08:19:19;;;;;;;7.50;4.35;;;;;;;;;;5016623;28;20270;-83
2023/02/24 08:21:52;;;;;;;9.18;3.53;;;;;;;;;;5016312;28;20214;-84
2023/02/24 08:24:22;;;;;;;7.88;2.85;;;;;;;;;;5017777;28;20223;-83
2023/02/24 08:27:03;;;;;;;4.60;2.60;;;;;;;;;;5016849;28;20230;-82
2023/02/24 08:29:36;;;;;;;4.65;2.83;;;;;;;;;;5017214;28;20178;-83
2023/02/24 08:32:08;;;;;;;6.35;3.10;;;;;;;;;;5028584;28;20216;-84
2023/02/24 08:34:35;;;;;;;6.95;3.10;;;;;;;;;;5036214;28;20282;-84
2023/02/24 08:37:04;;;;;;;4.22;2.67;;;;;;;;;;5035747;28;20305;-83
2023/02/24 08:39:35;;;;;;;4.53;3.13;;;;;;;;;;5035490;28;20229;-82
2023/02/24 08:42:03;;;;;;;4.07;2.40;;;;;;;;;;5034767;28;20205;-82
2023/02/24 08:44:33;;;;;;;10.75;3.65;;;;;;;;;;5035096;28;20213;-83
2023/02/24 08:47:03;;;;;;;5.70;3.08;;;;;;;;;;5034536;28;20320;-84
2023/02/24 08:49:32;;;;;;;7.03;3.95;;;;;;;;;;5035247;28;20193;-82
2023/02/24 08:52:01;;;;;;;4.20;2.80;;;;;;;;;;5035860;28;20206;-84
2023/02/24 08:54:30;;;;;;;4.88;2.85;;;;;;;;;;5035670;28;20233;-83
2023/02/24 08:57:06;;;;;;;5.88;3.58;;;;;;;;;;5036249;28;20284;-82
2023/02/24 08:59:47;;;;;;;4.70;2.65;;;;;;;;;;5035088;28;20193;-84
2023/02/24 09:02:26;;;;;;;3.00;2.15;;;;;;;;;;5035220;28;20206;-83
2023/02/24 09:04:55;;;;;;;4.72;3.38;;;;;;;;;;5035660;28;20191;-83
2023/02/24 09:07:26;;;;;;;4.03;2.35;;;;;;;;;;5035729;28;20715;-84
2023/02/24 09:09:56;;;;;;;3.60;2.30;;;;;;;;;;5035175;28;20305;-81
2023/02/24 09:12:27;;;;;;;4.45;2.90;;;;;;;;;;5035853;28;20293;-81
2023/02/24 09:14:59;;;;;;;3.10;2.78;;;;;;;;;;5035371;28;20553;-82
2023/02/24 09:17:49;;;;;;;3.63;2.33;;;;;;;;;;5052820;28;20225;-83
2023/02/24 09:23:06;;;;;;;2.92;2.15;;;;;;;;;;5054039;28;20701;-83
2023/02/24 09:25:40;;;;;;;3.40;2.60;;;;;;;;;;5053675;28;20232;-83
2023/02/24 09:28:15;;;;;;;4.70;2.10;;;;;;;;;;5034534;28;20261;-83
2023/02/24 09:30:53;;;;;;;5.95;2.78;;;;;;;;;;5034117;28;20186;-83
2023/02/24 09:33:23;;;;;;;5.13;2.25;;;;;;;;;;5035120;28;20187;-82
2023/02/24 09:36:01;;;;;;;1.88;1.70;;;;;;;;;;5035344;28;20186;-84
2023/02/24 09:41:31;;;;;;;1.80;1.70;;;;;;;;;;5034178;28;20806;-84
2023/02/24 09:44:02;;;;;;;3.42;2.30;;;;;;;;;;5034363;28;20232;-83
2023/02/24 09:46:36;;;;;;;1.77;1.33;;;;;;;;;;5033752;28;20262;-83
2023/02/24 09:49:11;;;;;;;3.97;2.17;;;;;;;;;;5035376;22;20325;-81
2023/02/24 09:51:42;;;;;;;3.13;2.22;;;;;;;;;;5033592;28;20206;-81
2023/02/24 09:54:15;;;;;;;4.45;2.80;;;;;;;;;;5033494;28;20587;-82
2023/02/24 09:57:06;;;;;;;3.97;2.10;;;;;;;;;;5033121;28;20209;-82
2023/02/24 09:59:49;;;;;;;2.05;1.85;;;;;;;;;;5031362;28;20222;-81
2023/02/24 10:02:38;;;;;;;4.40;2.10;;;;;;;;;;5045902;28;20237;-81
2023/02/24 10:05:13;;;;;;;2.00;1.80;;;;;;;;;;5052608;28;20225;-81
2023/02/24 10:07:43;;;;;;;2.10;1.40;;;;;;;;;;5052401;28;20294;-80
2023/02/24 10:10:19;;;;;;;3.05;1.92;;;;;;;;;;5050754;28;20224;-82
2023/02/24 10:12:52;;;;;;;4.10;2.25;;;;;;;;;;5052620;28;20248;-81
2023/02/24 10:15:49;;;;;;;7.60;2.65;;;;;;;;;;5051790;28;20694;-82
2023/02/24 10:18:29;;;;;;;2.47;2.10;;;;;;;;;;5051004;28;20204;-82
2023/02/24 10:21:05;;;;;;;4.63;2.60;;;;;;;;;;5051919;28;20217;-84
2023/02/24 10:23:45;;;;;;;2.85;1.48;;;;;;;;;;5052236;28;20227;-82
2023/02/24 10:26:30;;;;;;;1.88;1.73;;;;;;;;;;5052158;28;20288;-82
2023/02/24 10:29:07;;;;;;;2.30;1.95;;;;;;;;;;5050689;28;20210;-81
2023/02/24 10:31:42;;;;;;;5.88;2.28;;;;;;;;;;5051378;28;20303;-81
2023/02/24 10:34:12;;;;;;;2.22;2.03;;;;;;;;;;5052256;28;20201;-82
2023/02/24 10:36:42;;;;;;;3.22;2.28;;;;;;;;;;5052367;28;20259;-80
2023/02/24 10:39:15;;;;;;;7.45;3.20;;;;;;;;;;5053134;28;20257;-82
2023/02/24 10:41:56;;;;;;;3.03;2.08;;;;;;;;;;5052585;28;20219;-82
2023/02/24 10:44:34;;;;;;;2.28;1.92;;;;;;;;;;5052439;28;20222;-81
2023/02/24 10:47:11;;;;;;;4.53;2.42;;;;;;;;;;5052760;28;20259;-82
2023/02/24 10:49:55;;;;;;;2.20;1.67;;;;;;;;;;5050191;28;20262;-82
2023/02/24 10:52:49;;;;;;;2.42;2.22;;;;;;;;;;5052622;28;20206;-82
2023/02/24 10:55:38;;;;;;;5.05;1.63;;;;;;;;;;5052369;28;20210;-82
2023/02/24 10:58:06;;;;;;;2.60;2.00;;;;;;;;;;5051414;28;20292;-82
2023/02/24 11:00:59;;;;;;;2.75;1.60;;;;;;;;;;5050921;28;20232;-81
2023/02/24 11:03:40;;;;;;;2.13;1.85;;;;;;;;;;5032458;28;20682;-82
2023/02/24 11:06:29;;;;;;;3.28;2.22;;;;;;;;;;5032142;28;20237;-82
2023/02/24 11:09:18;;;;;;;1.70;1.60;;;;;;;;;;5031373;28;20213;-82
2023/02/24 11:17:25;;;;;;;2.13;1.63;;;;;;;;;;5036045;28;20213;-82
2023/02/24 11:19:59;;;;;;;3.13;2.15;;;;;;;;;;5034816;28;20268;-82
2023/02/24 11:22:32;;;;;;;1.83;1.73;;;;;;;;;;5034797;28;20673;-82
2023/02/24 11:25:06;;;;;;;1.20;1.15;;;;;;;;;;5034409;28;20226;-82
2023/02/24 11:27:33;;;;;;;3.63;2.00;;;;;;;;;;5034738;28;20202;-81
2023/02/24 11:30:19;;;;;;;3.75;1.83;;;;;;;;;;5034493;28;20242;-82
2023/02/24 11:33:08;;;;;;;2.97;2.20;;;;;;;;;;5052366;28;20674;-82
2023/02/24 11:35:40;;;;;;;2.50;2.28;;;;;;;;;;5054446;28;20576;-82
2023/02/24 11:38:17;;;;;;;4.25;1.88;;;;;;;;;;5053138;28;20205;-82
2023/02/24 11:40:49;;;;;;;2.95;2.13;;;;;;;;;;5053635;28;20236;-82
2023/02/24 11:43:20;;;;;;;2.03;1.88;;;;;;;;;;5053422;28;20208;-82
2023/02/24 11:45:51;;;;;;;6.07;2.50;;;;;;;;;;5053392;28;20224;-82
2023/02/24 11:48:22;;;;;;;3.80;2.95;;;;;;;;;;5052210;28;20209;-82
2023/02/24 11:50:54;;;;;;;4.75;2.75;;;;;;;;;;5053354;28;20704;-82
2023/02/24 11:53:28;;;;;;;2.42;2.22;;;;;;;;;;5053672;28;20206;-82
2023/02/24 11:56:01;;;;;;;2.38;2.17;;;;;;;;;;5053674;28;20208;-81
2023/02/24 11:58:38;;;;;;;2.70;2.22;;;;;;;;;;5052555;28;20202;-82
2023/02/24 12:01:14;;;;;;;1.88;1.77;;;;;;;;;;5052793;28;20626;-82
2023/02/24 12:03:50;;;;;;;2.67;1.90;;;;;;;;;;5053286;28;20205;-82
2023/02/24 12:06:23;;;;;;;4.18;2.50;;;;;;;;;;5053641;28;20197;-81
2023/02/24 12:08:54;;;;;;;1.92;1.73;;;;;;;;;;5052358;28;20578;-82
2023/02/24 12:11:37;;;;;;;1.65;1.55;;;;;;;;;;5053123;28;20201;-82
2023/02/24 12:14:18;;;;;;;4.60;2.20;;;;;;;;;;5053229;28;20678;-81
2023/02/24 12:16:49;;;;;;;2.80;1.92;;;;;;;;;;5052893;28;20206;-82
2023/02/24 12:19:20;;;;;;;2.47;2.10;;;;;;;;;;5053083;28;20758;-82
2023/02/24 12:21:53;;;;;;;1.90;1.80;;;;;;;;;;5052239;28;20209;-82
2023/02/24 12:24:21;;;;;;;3.72;2.67;;;;;;;;;;5052278;28;20592;-81
2023/02/24 12:27:00;;;;;;;3.25;2.95;;;;;;;;;;5051996;28;20272;-82
2023/02/24 12:30:05;;;;;;;4.82;2.78;;;;;;;;;;5051554;28;20651;-82
2023/02/24 12:32:55;;;;;;;3.67;2.45;;;;;;;;;;5042472;28;20209;-82
2023/02/24 12:35:36;;;;;;;4.10;2.35;;;;;;;;;;5053165;28;20197;-83
2023/02/24 12:38:21;;;;;;;2.65;2.45;;;;;;;;;;5052530;28;20212;-83
2023/02/24 12:40:55;;;;;;;2.50;2.15;;;;;;;;;;5053438;28;20312;-82
2023/02/24 12:43:30;;;;;;;2.85;2.58;;;;;;;;;;5053013;28;20212;-82
2023/02/24 12:46:03;;;;;;;2.45;2.22;;;;;;;;;;5053061;28;20247;-82
2023/02/24 12:48:52;;;;;;;2.22;1.90;;;;;;;;;;5052537;28;20206;-82
2023/02/24 12:51:27;;;;;;;2.35;2.15;;;;;;;;;;5052385;28;20209;-83
2023/02/24 12:54:03;;;;;;;2.38;1.90;;;;;;;;;;5053378;28;20296;-84
2023/02/24 12:56:39;;;;;;;4.10;2.28;;;;;;;;;;5053647;28;20673;-83
2023/02/24 12:59:08;;;;;;;3.67;2.10;;;;;;;;;;5053751;28;20232;-82
2023/02/24 13:01:40;;;;;;;3.65;2.10;;;;;;;;;;5052108;28;20201;-83
2023/02/24 13:04:32;;;;;;;4.13;2.33;;;;;;;;;;5054626;28;20230;-83
2023/02/24 13:07:17;;;;;;;2.10;1.90;;;;;;;;;;5042666;28;20208;-83
2023/02/24 13:09:54;;;;;;;2.47;1.98;;;;;;;;;;5052020;28;20221;-83
2023/02/24 13:12:27;;;;;;;2.50;2.15;;;;;;;;;;5052629;28;20208;-83
2023/02/24 13:14:54;;;;;;;3.10;2.10;;;;;;;;;;5052506;28;20673;-83
2023/02/24 13:17:25;;;;;;;8.98;7.13;;;;;;;;;;5051398;28;20202;-82
2023/02/24 13:19:55;;;;;;;6.13;3.25;;;;;;;;;;5051207;28;20221;-83
2023/02/24 13:22:30;;;;;;;4.03;2.42;;;;;;;;;;5052732;28;20210;-83
2023/02/24 13:25:09;;;;;;;5.40;2.13;;;;;;;;;;5052072;28;20220;-83
2023/02/24 13:27:38;;;;;;;4.50;2.67;;;;;;;;;;5052831;28;20205;-82
2023/02/24 13:30:27;;;;;;;2.55;1.85;;;;;;;;;;5051771;28;20267;-82
2023/02/24 13:33:04;;;;;;;2.15;1.95;;;;;;;;;;5051352;28;20678;-83
2023/02/24 13:35:35;;;;;;;2.22;2.03;;;;;;;;;;5053065;28;20207;-83
2023/02/24 13:38:26;;;;;;;1.60;1.50;;;;;;;;;;5057352;22;20225;-85
2023/02/24 13:40:54;;;;;;;2.05;1.90;;;;;;;;;;5051852;28;20186;-85
2023/02/24 13:43:26;;;;;;;3.00;1.80;;;;;;;;;;5051687;28;20651;-86
2023/02/24 13:46:01;;;;;;;3.53;2.53;;;;;;;;;;5051601;28;20674;-85
2023/02/24 13:49:00;;;;;;;2.30;1.55;;;;;;;;;;5051923;28;20252;-85
2023/02/24 13:51:53;;;;;;;2.53;2.17;;;;;;;;;;5051835;28;20203;-84
2023/02/24 13:54:54;;;;;;;2.45;1.90;;;;;;;;;;5046262;28;20201;-85
2023/02/24 13:58:03;;;;;;;2.05;1.95;;;;;;;;;;5042329;28;20676;-86
2023/02/24 14:00:42;;;;;;;2.35;2.15;;;;;;;;;;5048157;28;20211;-86
2023/02/24 14:03:12;;;;;;;1.88;1.75;;;;;;;;;;5051405;28;20236;-85
2023/02/24 14:05:43;;;;;;;5.63;2.88;;;;;;;;;;5051492;28;20202;-86
2023/02/24 14:08:19;;;;;;;1.92;1.73;;;;;;;;;;5051663;28;20588;-85
2023/02/24 14:10:53;;;;;;;2.13;2.03;;;;;;;;;;5051737;28;20186;-85
2023/02/24 14:13:26;;;;;;;2.17;1.60;;;;;;;;;;5051359;28;20189;-85
2023/02/24 14:15:55;;;;;;;2.63;2.15;;;;;;;;;;5051631;28;20189;-85
2023/02/24 14:18:24;;;;;;;2.08;1.92;;;;;;;;;;5051093;28;20221;-85
2023/02/24 14:20:53;;;;;;;3.60;1.80;;;;;;;;;;5051332;28;20294;-85
2023/02/24 14:23:24;;;;;;;5.80;2.58;;;;;;;;;;5051232;28;20292;-84
2023/02/24 14:25:57;;;;;;;3.15;2.75;;;;;;;;;;5051280;28;20305;-85
2023/02/24 14:28:27;;;;;;;2.38;2.20;;;;;;;;;;5051376;28;20591;-85
2023/02/24 14:30:58;;;;;;;1.90;1.80;;;;;;;;;;5051501;28;20650;-85
2023/02/24 14:33:30;;;;;;;2.72;2.50;;;;;;;;;;5051000;28;20221;-85
2023/02/24 14:35:58;;;;;;;2.72;2.53;;;;;;;;;;5051733;28;20222;-86
2023/02/24 14:38:32;;;;;;;2.10;1.90;;;;;;;;;;5050920;28;20320;-86
2023/02/24 14:41:02;;;;;;;3.55;2.10;;;;;;;;;;5051197;28;20198;-86
2023/02/24 14:43:29;;;;;;;3.55;2.38;;;;;;;;;;5051149;28;20202;-85
2023/02/24 14:46:00;;;;;;;2.47;2.28;;;;;;;;;;5054163;28;20229;-86
2023/02/24 14:48:29;;;;;;;1.67;1.58;;;;;;;;;;5054718;28;20225;-86
2023/02/24 14:51:01;;;;;;;1.92;1.83;;;;;;;;;;5055018;28;20198;-87
2023/02/24 14:53:30;;;;;;;2.53;1.77;;;;;;;;;;5054627;28;20281;-86
2023/02/24 14:56:00;;;;;;;1.45;1.35;;;;;;;;;;5054727;28;20918;-85
2023/02/24 14:58:33;;;;;;;1.63;1.52;;;;;;;;;;5054603;28;20606;-86
2023/02/24 15:01:05;;;;;;;2.25;2.05;;;;;;;;;;5054583;28;20184;-85
2023/02/24 15:03:35;;;;;;;1.50;1.40;;;;;;;;;;5054593;28;20273;-85
2023/02/24 15:06:07;;;;;;;1.90;1.80;;;;;;;;;;5054655;28;20561;-84
2023/02/24 15:08:39;;;;;;;1.95;1.85;;;;;;;;;;5054579;28;20214;-84
2023/02/24 15:11:18;;;;;;;1.85;1.75;;;;;;;;;;5054755;28;20192;-84
2023/02/24 15:13:48;;;;;;;1.90;1.80;;;;;;;;;;5054473;28;20228;-84
2023/02/24 15:16:21;;;;;;;2.50;2.30;;;;;;;;;;5054464;28;20188;-85
2023/02/24 15:18:51;;;;;;;2.13;2.03;;;;;;;;;;5054382;28;20226;-84
2023/02/24 15:21:28;;;;;;;3.33;3.13;;;;;;;;;;5054916;28;20304;-85
2023/02/24 15:24:00;;;;;;;2.00;1.90;;;;;;;;;;5054529;28;20193;-85
2023/02/24 15:26:32;;;;;;;2.08;1.98;;;;;;;;;;5054456;28;20206;-84
2023/02/24 15:29:02;;;;;;;2.58;2.38;;;;;;;;;;5054148;28;20217;-84
2023/02/24 15:31:30;;;;;;;2.00;1.90;;;;;;;;;;5054005;28;20226;-85
2023/02/24 15:34:00;;;;;;;1.80;1.70;;;;;;;;;;5054257;28;20228;-85
2023/02/24 15:36:32;;;;;;;1.90;1.80;;;;;;;;;;5053860;28;20193;-85